Time;durP1;ratioP1;P1;durP2;ratioP2;P2;SDS_P1;SDS_P2;PMS_P1;PMS_P2;Temp;Humidity;BMP_temperature;BMP_pressure;BME280_temperature;BME280_humidity;BME280_pressure;Samples;Min_cycle;Max_cycle;Signal;HPM_P1;HPM_P2
2021/11/22 00:00:17;;;;;;;3.50;2.87;;;;;;;;;;5100438;28;20444;-71
2021/11/22 00:02:48;;;;;;;5.40;3.17;;;;;;;;;;5100374;28;20533;-71
2021/11/22 00:05:16;;;;;;;3.00;2.73;;;;;;;;;;5100154;28;20493;-71
2021/11/22 00:07:44;;;;;;;3.93;3.27;;;;;;;;;;5099834;28;20543;-71
2021/11/22 00:10:12;;;;;;;3.53;2.90;;;;;;;;;;5099921;28;20444;-71
2021/11/22 00:12:40;;;;;;;4.00;2.83;;;;;;;;;;5099676;28;20802;-72
2021/11/22 00:15:09;;;;;;;3.47;3.03;;;;;;;;;;5099772;28;20439;-71
2021/11/22 00:17:37;;;;;;;4.67;2.97;;;;;;;;;;5100114;28;20444;-71
2021/11/22 00:20:08;;;;;;;3.43;3.13;;;;;;;;;;5099608;28;20443;-72
2021/11/22 00:22:36;;;;;;;3.30;2.97;;;;;;;;;;5099641;28;20479;-71
2021/11/22 00:25:04;;;;;;;3.47;2.90;;;;;;;;;;5099935;28;20438;-71
2021/11/22 00:27:32;;;;;;;4.13;3.00;;;;;;;;;;5099350;28;20443;-71
2021/11/22 00:30:00;;;;;;;3.43;2.47;;;;;;;;;;5099538;28;20455;-71
2021/11/22 00:32:28;;;;;;;3.00;2.70;;;;;;;;;;5099681;28;20448;-72
2021/11/22 00:34:56;;;;;;;4.00;2.90;;;;;;;;;;5098235;28;20452;-71
2021/11/22 00:37:31;;;;;;;3.47;2.60;;;;;;;;;;5099231;28;20454;-71
2021/11/22 00:40:00;;;;;;;2.73;2.53;;;;;;;;;;5099235;28;20461;-72
2021/11/22 00:42:29;;;;;;;2.53;2.33;;;;;;;;;;5098804;28;20846;-71
2021/11/22 00:44:57;;;;;;;2.97;2.50;;;;;;;;;;5099556;28;20451;-72
2021/11/22 00:47:25;;;;;;;3.70;2.60;;;;;;;;;;5099014;28;20831;-72
2021/11/22 00:49:53;;;;;;;3.40;2.63;;;;;;;;;;5098998;28;20700;-72
2021/11/22 00:52:21;;;;;;;2.83;2.53;;;;;;;;;;5099332;28;20206;-72
2021/11/22 00:54:51;;;;;;;2.20;1.97;;;;;;;;;;5099425;28;20208;-72
2021/11/22 00:57:19;;;;;;;3.33;2.53;;;;;;;;;;5098794;28;20289;-72
2021/11/22 00:59:46;;;;;;;2.57;1.97;;;;;;;;;;5099116;28;20229;-72
2021/11/22 01:02:14;;;;;;;2.73;2.43;;;;;;;;;;5098874;28;20590;-72
2021/11/22 01:04:43;;;;;;;2.43;2.17;;;;;;;;;;5099121;28;20703;-72
2021/11/22 01:07:10;;;;;;;3.20;2.53;;;;;;;;;;5098880;28;20211;-72
2021/11/22 01:09:38;;;;;;;2.50;2.23;;;;;;;;;;5098770;28;20221;-71
2021/11/22 01:12:08;;;;;;;2.43;2.23;;;;;;;;;;5098479;28;20209;-71
2021/11/22 01:14:36;;;;;;;2.53;2.33;;;;;;;;;;5098885;28;20194;-71
2021/11/22 01:17:04;;;;;;;2.63;2.10;;;;;;;;;;5099021;28;20439;-71
2021/11/22 01:19:33;;;;;;;2.47;2.07;;;;;;;;;;5098516;28;20225;-71
2021/11/22 01:22:01;;;;;;;2.30;2.10;;;;;;;;;;5098627;28;20215;-72
2021/11/22 01:24:29;;;;;;;1.87;1.77;;;;;;;;;;5098534;28;20205;-72
2021/11/22 01:26:57;;;;;;;2.93;2.40;;;;;;;;;;5098488;28;20206;-72
2021/11/22 01:29:27;;;;;;;2.37;2.17;;;;;;;;;;5098484;28;20308;-71
2021/11/22 01:31:55;;;;;;;3.40;2.60;;;;;;;;;;5098324;28;20753;-72
2021/11/22 01:34:24;;;;;;;2.60;2.40;;;;;;;;;;5098636;28;20444;-72
2021/11/22 01:36:51;;;;;;;2.40;2.00;;;;;;;;;;5098422;28;20451;-72
2021/11/22 01:39:19;;;;;;;2.20;2.00;;;;;;;;;;5097971;28;20463;-72
2021/11/22 01:41:47;;;;;;;2.70;2.00;;;;;;;;;;5097940;28;20439;-71
2021/11/22 01:44:15;;;;;;;4.63;2.20;;;;;;;;;;5097766;28;20483;-72
2021/11/22 01:46:45;;;;;;;5.03;2.47;;;;;;;;;;5098048;28;20446;-72
2021/11/22 01:49:13;;;;;;;2.57;2.17;;;;;;;;;;5098064;28;20490;-72
2021/11/22 01:51:41;;;;;;;4.13;2.50;;;;;;;;;;5098079;28;20450;-72
2021/11/22 01:54:09;;;;;;;3.37;2.37;;;;;;;;;;5098138;28;20453;-71
2021/11/22 01:56:37;;;;;;;2.20;1.97;;;;;;;;;;5097620;28;20676;-72
2021/11/22 01:59:05;;;;;;;2.50;2.27;;;;;;;;;;5097790;28;20308;-72
2021/11/22 02:01:33;;;;;;;2.23;2.03;;;;;;;;;;5098067;28;20451;-72
2021/11/22 02:04:03;;;;;;;1.90;1.70;;;;;;;;;;5098162;28;20226;-71
2021/11/22 02:06:31;;;;;;;2.30;2.07;;;;;;;;;;5098099;28;20205;-72
2021/11/22 02:08:59;;;;;;;2.30;2.10;;;;;;;;;;5097802;28;20966;-71
2021/11/22 02:11:27;;;;;;;1.90;1.80;;;;;;;;;;5097567;28;20439;-72
2021/11/22 02:13:55;;;;;;;1.60;1.50;;;;;;;;;;5097799;28;20442;-72
2021/11/22 02:16:23;;;;;;;1.67;1.57;;;;;;;;;;5097852;28;20439;-72
2021/11/22 02:18:51;;;;;;;2.17;1.70;;;;;;;;;;5097770;28;20555;-72
2021/11/22 02:21:20;;;;;;;1.40;1.30;;;;;;;;;;5097755;28;20443;-72
2021/11/22 02:23:49;;;;;;;2.83;1.50;;;;;;;;;;5097480;28;20488;-72
2021/11/22 02:26:17;;;;;;;2.67;1.60;;;;;;;;;;5097346;28;20214;-72
2021/11/22 02:28:45;;;;;;;2.07;1.77;;;;;;;;;;5097878;28;20248;-72
2021/11/22 02:31:13;;;;;;;1.70;1.60;;;;;;;;;;5084429;28;20210;-72
2021/11/22 02:33:41;;;;;;;1.83;1.60;;;;;;;;;;5097498;28;20635;-72
2021/11/22 02:36:09;;;;;;;2.20;2.00;;;;;;;;;;5097431;28;20475;-72
2021/11/22 02:38:39;;;;;;;1.70;1.60;;;;;;;;;;5097528;28;20462;-72
2021/11/22 02:41:10;;;;;;;2.20;2.00;;;;;;;;;;5097061;28;20657;-72
2021/11/22 02:43:40;;;;;;;2.27;1.97;;;;;;;;;;5097211;28;20279;-72
2021/11/22 02:46:08;;;;;;;5.17;2.50;;;;;;;;;;5097284;28;20593;-72
2021/11/22 02:48:36;;;;;;;5.20;2.20;;;;;;;;;;5097426;28;20222;-72
2021/11/22 02:51:05;;;;;;;1.90;1.63;;;;;;;;;;5097413;28;20210;-72
2021/11/22 02:53:33;;;;;;;2.40;2.20;;;;;;;;;;5097543;28;20229;-72
2021/11/22 02:56:06;;;;;;;6.23;2.03;;;;;;;;;;5097272;28;20206;-72
2021/11/22 02:58:35;;;;;;;2.07;1.87;;;;;;;;;;5099313;28;20229;-72
2021/11/22 03:01:04;;;;;;;2.23;1.93;;;;;;;;;;5101378;28;20216;-72
2021/11/22 03:03:33;;;;;;;3.33;2.10;;;;;;;;;;5101158;28;20228;-73
2021/11/22 03:06:07;;;;;;;2.40;2.20;;;;;;;;;;5101413;28;20720;-72
2021/11/22 03:08:35;;;;;;;3.57;2.60;;;;;;;;;;5101385;28;20722;-72
2021/11/22 03:11:05;;;;;;;3.07;2.30;;;;;;;;;;5101244;28;20292;-72
2021/11/22 03:13:33;;;;;;;2.73;2.50;;;;;;;;;;5101338;28;20197;-72
2021/11/22 03:16:01;;;;;;;2.60;2.40;;;;;;;;;;5100918;28;20210;-72
2021/11/22 03:18:29;;;;;;;5.17;3.00;;;;;;;;;;5100883;28;20745;-72
2021/11/22 03:20:57;;;;;;;4.03;2.50;;;;;;;;;;5100706;28;20237;-72
2021/11/22 03:23:26;;;;;;;2.80;2.07;;;;;;;;;;5101002;28;20232;-72
2021/11/22 03:25:54;;;;;;;2.90;2.60;;;;;;;;;;5084536;28;20420;-72
2021/11/22 03:28:25;;;;;;;3.60;2.90;;;;;;;;;;5099407;28;20228;-72
2021/11/22 03:30:53;;;;;;;2.43;2.23;;;;;;;;;;5087593;28;20209;-72
2021/11/22 03:33:21;;;;;;;2.73;2.40;;;;;;;;;;5100514;28;20205;-72
2021/11/22 03:35:51;;;;;;;5.27;2.87;;;;;;;;;;5100677;28;20553;-72
2021/11/22 03:38:21;;;;;;;4.83;2.30;;;;;;;;;;5100687;28;20225;-71
2021/11/22 03:40:51;;;;;;;2.70;2.50;;;;;;;;;;5100399;28;20201;-72
2021/11/22 03:43:27;;;;;;;3.60;2.53;;;;;;;;;;5100123;28;20237;-72
2021/11/22 03:45:57;;;;;;;2.70;2.50;;;;;;;;;;5100540;28;20211;-72
2021/11/22 03:48:25;;;;;;;2.40;2.17;;;;;;;;;;5100494;28;20758;-71
2021/11/22 03:50:53;;;;;;;2.93;2.60;;;;;;;;;;5100280;28;20567;-72
2021/11/22 03:53:21;;;;;;;2.00;1.90;;;;;;;;;;5100441;28;20706;-72
2021/11/22 03:55:49;;;;;;;3.10;2.43;;;;;;;;;;5098391;28;20734;-72
2021/11/22 03:58:17;;;;;;;2.40;2.20;;;;;;;;;;5098181;28;20716;-72
2021/11/22 04:00:45;;;;;;;2.30;2.03;;;;;;;;;;5097876;28;20236;-73
2021/11/22 04:03:15;;;;;;;2.27;2.17;;;;;;;;;;5106220;28;20598;-72
2021/11/22 04:05:43;;;;;;;2.17;2.03;;;;;;;;;;5106743;28;20223;-72
2021/11/22 04:08:11;;;;;;;2.20;2.00;;;;;;;;;;5107414;28;20962;-72
2021/11/22 04:10:39;;;;;;;2.37;2.17;;;;;;;;;;5106216;28;20432;-71
2021/11/22 04:13:07;;;;;;;2.93;1.80;;;;;;;;;;5108141;28;20438;-72
2021/11/22 04:15:36;;;;;;;2.97;1.93;;;;;;;;;;5110586;28;20918;-72
2021/11/22 04:18:04;;;;;;;4.37;1.77;;;;;;;;;;5107221;28;20217;-72
2021/11/22 04:20:33;;;;;;;3.20;2.63;;;;;;;;;;5105921;28;20461;-72
2021/11/22 04:23:02;;;;;;;2.30;2.00;;;;;;;;;;5096808;28;20457;-72
2021/11/22 04:25:29;;;;;;;2.60;2.40;;;;;;;;;;5086148;28;20484;-72
2021/11/22 04:27:58;;;;;;;2.50;2.30;;;;;;;;;;5086121;28;20468;-72
2021/11/22 04:30:26;;;;;;;2.47;2.27;;;;;;;;;;5092180;28;20803;-72
2021/11/22 04:32:54;;;;;;;2.90;2.57;;;;;;;;;;5085383;28;20443;-72
2021/11/22 04:35:22;;;;;;;2.37;2.17;;;;;;;;;;5086972;28;20474;-72
2021/11/22 04:37:51;;;;;;;3.67;2.50;;;;;;;;;;5084082;28;20780;-72
2021/11/22 04:40:19;;;;;;;3.83;2.70;;;;;;;;;;5091163;28;20436;-72
2021/11/22 04:42:49;;;;;;;3.17;2.73;;;;;;;;;;5083455;28;20317;-72
2021/11/22 04:45:18;;;;;;;2.90;2.70;;;;;;;;;;5085204;28;20555;-72
2021/11/22 04:47:46;;;;;;;3.33;2.50;;;;;;;;;;5086088;28;20537;-72
2021/11/22 04:50:15;;;;;;;3.13;2.30;;;;;;;;;;5085803;28;20225;-72
2021/11/22 04:52:44;;;;;;;3.03;2.70;;;;;;;;;;5086437;28;20432;-72
2021/11/22 04:55:14;;;;;;;2.67;2.47;;;;;;;;;;5086093;28;20436;-72
2021/11/22 04:57:42;;;;;;;2.60;2.40;;;;;;;;;;5083151;28;20511;-72
2021/11/22 05:00:11;;;;;;;3.47;2.50;;;;;;;;;;5085449;28;20440;-73
2021/11/22 05:02:40;;;;;;;4.03;2.20;;;;;;;;;;5085715;28;20438;-72
2021/11/22 05:05:08;;;;;;;2.23;2.03;;;;;;;;;;5084511;28;20472;-72
2021/11/22 05:07:36;;;;;;;2.53;2.27;;;;;;;;;;5085463;28;20439;-72
2021/11/22 05:10:22;;;;;;;3.57;2.60;;;;;;;;;;5085854;28;20663;-72
2021/11/22 05:12:50;;;;;;;2.13;2.00;;;;;;;;;;5083680;28;20667;-72
2021/11/22 05:15:18;;;;;;;2.53;2.33;;;;;;;;;;5086574;28;20239;-72
2021/11/22 05:17:46;;;;;;;3.03;2.77;;;;;;;;;;5086567;28;20834;-72
2021/11/22 05:20:14;;;;;;;2.00;1.90;;;;;;;;;;5086875;28;20204;-72
2021/11/22 05:22:42;;;;;;;1.23;1.23;;;;;;;;;;5084910;28;20204;-74
2021/11/22 05:25:10;;;;;;;1.83;1.73;;;;;;;;;;5092367;28;20486;-72
2021/11/22 05:27:39;;;;;;;2.00;1.80;;;;;;;;;;5098211;28;20216;-72
2021/11/22 05:30:07;;;;;;;3.33;2.17;;;;;;;;;;5098425;28;20640;-72
2021/11/22 05:32:35;;;;;;;1.80;1.70;;;;;;;;;;5102169;28;20439;-72
2021/11/22 05:35:04;;;;;;;1.60;1.50;;;;;;;;;;5105745;28;20486;-72
2021/11/22 05:37:34;;;;;;;3.30;1.70;;;;;;;;;;5105180;28;20233;-72
2021/11/22 05:40:02;;;;;;;1.70;1.60;;;;;;;;;;5104457;28;20217;-72
2021/11/22 05:42:30;;;;;;;2.07;1.30;;;;;;;;;;5107209;28;20564;-71
2021/11/22 05:44:59;;;;;;;16.03;7.07;;;;;;;;;;5106934;28;20214;-73
2021/11/22 05:47:28;;;;;;;1.93;1.60;;;;;;;;;;5105109;28;20198;-72
2021/11/22 05:50:02;;;;;;;1.63;1.50;;;;;;;;;;5092919;28;20481;-72
2021/11/22 05:52:30;;;;;;;3.90;1.60;;;;;;;;;;5084061;28;20229;-72
2021/11/22 05:54:59;;;;;;;2.53;1.50;;;;;;;;;;5085581;28;20277;-72
2021/11/22 05:57:27;;;;;;;2.40;1.63;;;;;;;;;;5084629;28;20194;-72
2021/11/22 05:59:55;;;;;;;1.67;1.50;;;;;;;;;;5103400;28;20224;-72
2021/11/22 06:02:25;;;;;;;2.10;1.90;;;;;;;;;;5106120;28;20232;-72
2021/11/22 06:04:53;;;;;;;2.00;1.90;;;;;;;;;;5100501;28;20217;-73
2021/11/22 06:07:21;;;;;;;1.90;1.70;;;;;;;;;;5105565;28;20466;-72
2021/11/22 06:09:49;;;;;;;3.03;2.40;;;;;;;;;;5104621;28;20489;-72
2021/11/22 06:12:17;;;;;;;2.10;1.97;;;;;;;;;;5105998;28;20438;-72
2021/11/22 06:14:45;;;;;;;4.63;2.77;;;;;;;;;;5102612;28;20470;-73
2021/11/22 06:17:13;;;;;;;2.30;2.10;;;;;;;;;;5085206;28;20436;-73
2021/11/22 06:19:42;;;;;;;3.47;2.57;;;;;;;;;;5081575;28;20463;-73
2021/11/22 06:22:10;;;;;;;4.83;2.50;;;;;;;;;;5077800;28;20204;-73
2021/11/22 06:24:38;;;;;;;3.23;2.93;;;;;;;;;;5081871;28;20939;-72
2021/11/22 06:27:06;;;;;;;4.87;2.97;;;;;;;;;;5081768;28;20488;-72
2021/11/22 06:29:37;;;;;;;3.87;3.10;;;;;;;;;;5083013;28;20233;-72
2021/11/22 06:32:10;;;;;;;4.37;3.07;;;;;;;;;;5078044;28;20642;-71
2021/11/22 06:34:38;;;;;;;6.40;4.07;;;;;;;;;;5081470;28;20462;-72
2021/11/22 06:37:08;;;;;;;5.47;3.60;;;;;;;;;;5083588;28;20217;-72
2021/11/22 06:39:36;;;;;;;6.23;4.00;;;;;;;;;;5084702;28;20461;-72
2021/11/22 06:42:05;;;;;;;6.27;4.13;;;;;;;;;;5103689;28;20454;-73
2021/11/22 06:44:33;;;;;;;6.43;4.13;;;;;;;;;;5109509;28;20230;-73
2021/11/22 06:47:02;;;;;;;5.57;4.10;;;;;;;;;;5106597;28;20225;-73
2021/11/22 06:49:31;;;;;;;5.30;3.53;;;;;;;;;;5108695;28;20688;-73
2021/11/22 06:51:59;;;;;;;4.90;3.63;;;;;;;;;;5111996;28;20212;-72
2021/11/22 06:54:28;;;;;;;7.93;4.10;;;;;;;;;;5106518;28;20438;-73
2021/11/22 06:56:56;;;;;;;8.30;4.70;;;;;;;;;;5103884;28;20649;-71
2021/11/22 06:59:27;;;;;;;8.53;4.93;;;;;;;;;;5111059;28;20504;-72
2021/11/22 07:01:55;;;;;;;10.10;4.73;;;;;;;;;;5107864;28;20533;-73
2021/11/22 07:04:23;;;;;;;9.20;5.57;;;;;;;;;;5110599;28;20458;-72
2021/11/22 07:06:51;;;;;;;9.17;4.87;;;;;;;;;;5101087;28;20479;-72
2021/11/22 07:09:19;;;;;;;10.00;6.00;;;;;;;;;;5100855;28;20793;-72
2021/11/22 07:11:49;;;;;;;9.60;5.17;;;;;;;;;;5101041;28;20447;-73
2021/11/22 07:14:17;;;;;;;7.23;5.30;;;;;;;;;;5101008;28;20443;-72
2021/11/22 07:16:45;;;;;;;9.47;5.70;;;;;;;;;;5101225;28;20201;-73
2021/11/22 07:19:13;;;;;;;7.37;5.07;;;;;;;;;;5101319;28;20221;-73
2021/11/22 07:21:41;;;;;;;13.07;6.10;;;;;;;;;;5101028;28;20444;-73
2021/11/22 07:24:09;;;;;;;10.27;5.43;;;;;;;;;;5101184;28;20210;-73
2021/11/22 07:26:37;;;;;;;10.03;5.33;;;;;;;;;;5107881;28;20586;-72
2021/11/22 07:29:08;;;;;;;6.80;4.87;;;;;;;;;;5106511;28;20236;-72
2021/11/22 07:31:35;;;;;;;9.50;5.13;;;;;;;;;;5110724;28;20201;-69
2021/11/22 07:34:04;;;;;;;7.50;5.60;;;;;;;;;;5108411;28;20204;-67
2021/11/22 07:36:32;;;;;;;9.80;6.27;;;;;;;;;;5108119;27;20447;-71
2021/11/22 07:39:00;;;;;;;12.40;6.10;;;;;;;;;;5098122;28;20225;-71
2021/11/22 07:41:28;;;;;;;11.90;6.60;;;;;;;;;;5098814;28;20447;-70
2021/11/22 07:43:56;;;;;;;13.17;7.10;;;;;;;;;;5086551;28;20486;-72
2021/11/22 07:46:26;;;;;;;11.87;6.90;;;;;;;;;;5096593;28;20479;-72
2021/11/22 07:48:55;;;;;;;10.57;6.63;;;;;;;;;;5099928;28;20875;-68
2021/11/22 07:51:23;;;;;;;10.20;5.90;;;;;;;;;;5099917;28;20544;-72
2021/11/22 07:53:51;;;;;;;8.80;5.93;;;;;;;;;;5100294;28;20930;-72
2021/11/22 07:56:20;;;;;;;10.97;7.30;;;;;;;;;;5102692;28;20442;-70
2021/11/22 07:58:48;;;;;;;13.97;7.13;;;;;;;;;;5105405;28;20979;-70
2021/11/22 08:01:16;;;;;;;11.33;6.60;;;;;;;;;;5108795;28;20504;-69
2021/11/22 08:03:46;;;;;;;11.03;5.97;;;;;;;;;;5107789;28;20458;-70
2021/11/22 08:06:15;;;;;;;12.17;6.33;;;;;;;;;;5097762;28;20514;-72
2021/11/22 08:08:43;;;;;;;13.40;7.57;;;;;;;;;;5087413;28;20457;-70
2021/11/22 08:11:30;;;;;;;16.07;8.00;;;;;;;;;;5087276;28;20473;-70
2021/11/22 08:13:58;;;;;;;11.33;6.37;;;;;;;;;;5084782;28;20511;-70
2021/11/22 08:16:26;;;;;;;11.23;6.53;;;;;;;;;;5098245;28;20485;-70
2021/11/22 08:18:55;;;;;;;11.87;7.00;;;;;;;;;;5099513;28;20470;-70
2021/11/22 08:21:23;;;;;;;11.10;7.50;;;;;;;;;;5099664;28;20447;-70
2021/11/22 08:23:56;;;;;;;11.93;7.03;;;;;;;;;;5099666;28;20447;-70
2021/11/22 08:26:24;;;;;;;10.97;6.93;;;;;;;;;;5099629;28;20487;-70
2021/11/22 08:28:52;;;;;;;15.13;7.93;;;;;;;;;;5099609;28;20463;-70
2021/11/22 08:31:20;;;;;;;13.07;7.67;;;;;;;;;;5099249;28;20883;-70
2021/11/22 08:33:48;;;;;;;11.17;6.57;;;;;;;;;;5092618;28;20482;-71
2021/11/22 08:36:20;;;;;;;14.27;6.97;;;;;;;;;;5099041;28;20522;-70
2021/11/22 08:38:48;;;;;;;12.33;6.83;;;;;;;;;;5098982;28;20831;-70
2021/11/22 08:41:16;;;;;;;12.20;8.17;;;;;;;;;;5099102;28;20443;-70
2021/11/22 08:43:45;;;;;;;15.47;8.43;;;;;;;;;;5096903;28;20471;-71
2021/11/22 08:46:13;;;;;;;14.70;8.00;;;;;;;;;;5088229;28;20205;-70
2021/11/22 08:48:41;;;;;;;16.97;7.90;;;;;;;;;;5093224;28;20968;-71
2021/11/22 08:51:09;;;;;;;17.13;9.43;;;;;;;;;;5098480;28;20443;-71
2021/11/22 08:53:38;;;;;;;15.87;8.93;;;;;;;;;;5105100;28;20446;-71
2021/11/22 08:56:06;;;;;;;16.20;8.40;;;;;;;;;;5105285;28;20478;-71
2021/11/22 08:58:35;;;;;;;13.83;7.80;;;;;;;;;;5109309;28;20815;-71
2021/11/22 09:01:03;;;;;;;12.37;7.33;;;;;;;;;;5106606;28;20485;-71
2021/11/22 09:03:31;;;;;;;13.03;7.80;;;;;;;;;;5105411;28;20527;-71
2021/11/22 09:05:59;;;;;;;16.90;9.23;;;;;;;;;;5101939;28;20450;-71
2021/11/22 09:08:27;;;;;;;18.00;8.67;;;;;;;;;;5106433;28;20224;-71
2021/11/22 09:10:56;;;;;;;12.90;8.50;;;;;;;;;;5102600;28;20462;-71
2021/11/22 09:13:24;;;;;;;17.43;8.70;;;;;;;;;;5104817;28;20447;-71
2021/11/22 09:15:53;;;;;;;17.37;8.73;;;;;;;;;;5108897;28;21040;-71
2021/11/22 09:18:21;;;;;;;16.60;8.57;;;;;;;;;;5107077;28;20451;-72
2021/11/22 09:20:49;;;;;;;15.93;8.60;;;;;;;;;;5099392;28;20517;-72
2021/11/22 09:23:17;;;;;;;13.03;7.87;;;;;;;;;;5108577;28;20439;-72
2021/11/22 09:25:45;;;;;;;18.33;7.83;;;;;;;;;;5106931;28;20926;-72
2021/11/22 09:28:15;;;;;;;14.00;7.80;;;;;;;;;;5104320;28;20486;-71
2021/11/22 09:30:43;;;;;;;13.67;8.57;;;;;;;;;;5106876;28;20438;-71
2021/11/22 09:33:11;;;;;;;13.30;8.80;;;;;;;;;;5105398;28;20448;-71
2021/11/22 09:35:39;;;;;;;10.53;7.80;;;;;;;;;;5098051;28;20440;-71
2021/11/22 09:38:07;;;;;;;12.73;7.50;;;;;;;;;;5101979;28;20461;-70
2021/11/22 09:40:35;;;;;;;12.00;7.53;;;;;;;;;;5103051;28;20448;-71
2021/11/22 09:43:04;;;;;;;11.47;7.33;;;;;;;;;;5105738;28;20554;-70
2021/11/22 09:45:33;;;;;;;12.37;7.80;;;;;;;;;;5105465;28;20439;-70
2021/11/22 09:48:04;;;;;;;15.93;8.63;;;;;;;;;;5092930;28;20506;-70
2021/11/22 09:50:32;;;;;;;12.00;7.70;;;;;;;;;;5084808;28;20451;-70
2021/11/22 09:53:01;;;;;;;10.67;7.27;;;;;;;;;;5085169;28;20481;-71
2021/11/22 09:55:30;;;;;;;13.50;8.10;;;;;;;;;;5085933;28;20440;-70
2021/11/22 09:57:58;;;;;;;12.87;7.70;;;;;;;;;;5086198;28;20463;-70
2021/11/22 10:00:35;;;;;;;11.40;7.47;;;;;;;;;;5097092;28;20489;-70
2021/11/22 10:03:05;;;;;;;11.57;7.57;;;;;;;;;;5084141;28;20443;-70
2021/11/22 10:05:36;;;;;;;14.47;7.83;;;;;;;;;;5081702;28;20436;-72
2021/11/22 10:08:06;;;;;;;16.87;9.67;;;;;;;;;;5080628;28;21051;-70
2021/11/22 10:10:35;;;;;;;13.43;8.40;;;;;;;;;;5085474;28;20433;-71
2021/11/22 10:13:17;;;;;;;12.90;8.37;;;;;;;;;;5088139;28;20450;-71
2021/11/22 10:15:47;;;;;;;11.47;7.97;;;;;;;;;;5095031;28;20440;-73
2021/11/22 10:18:18;;;;;;;12.80;7.60;;;;;;;;;;5097440;28;20463;-72
2021/11/22 10:20:46;;;;;;;14.90;7.43;;;;;;;;;;5097276;28;20443;-72
2021/11/22 10:23:16;;;;;;;12.10;7.30;;;;;;;;;;5097724;28;20439;-72
2021/11/22 10:25:44;;;;;;;12.37;7.33;;;;;;;;;;5097551;28;20455;-72
2021/11/22 10:28:13;;;;;;;10.23;7.57;;;;;;;;;;5097291;28;20994;-70
2021/11/22 10:30:43;;;;;;;12.10;7.67;;;;;;;;;;5085148;28;20452;-68
2021/11/22 10:33:13;;;;;;;12.53;6.80;;;;;;;;;;5086933;28;20455;-71
2021/11/22 10:35:41;;;;;;;12.00;7.57;;;;;;;;;;5078727;28;20436;-71
2021/11/22 10:38:12;;;;;;;10.20;7.00;;;;;;;;;;5085491;28;20543;-71
2021/11/22 10:40:41;;;;;;;10.63;7.20;;;;;;;;;;5085323;28;20443;-71
2021/11/22 10:43:09;;;;;;;11.27;7.13;;;;;;;;;;5083392;28;20477;-71
2021/11/22 10:45:39;;;;;;;10.43;6.63;;;;;;;;;;5085211;28;20241;-72
2021/11/22 10:48:11;;;;;;;12.00;6.73;;;;;;;;;;5084884;28;20970;-71
2021/11/22 10:50:48;;;;;;;12.47;8.10;;;;;;;;;;5085921;28;20636;-72
2021/11/22 10:53:24;;;;;;;11.03;6.87;;;;;;;;;;5084324;28;20436;-72
2021/11/22 10:55:52;;;;;;;10.00;6.93;;;;;;;;;;5082455;28;20200;-68
2021/11/22 10:58:46;;;;;;;10.53;7.17;;;;;;;;;;5097396;28;20244;-71
2021/11/22 11:01:15;;;;;;;11.40;6.90;;;;;;;;;;5093659;28;20478;-68
2021/11/22 11:03:55;;;;;;;11.33;7.70;;;;;;;;;;5097156;28;20322;-71
2021/11/22 11:06:35;;;;;;;13.43;6.67;;;;;;;;;;5101846;28;20438;-73
2021/11/22 11:09:04;;;;;;;13.37;6.70;;;;;;;;;;5103543;28;20652;-68
2021/11/22 11:11:32;;;;;;;10.97;7.27;;;;;;;;;;5101606;28;20210;-71
2021/11/22 11:14:04;;;;;;;12.80;7.37;;;;;;;;;;5091561;28;20213;-68
2021/11/22 11:16:33;;;;;;;9.97;6.90;;;;;;;;;;5096789;28;20202;-70
2021/11/22 11:19:03;;;;;;;11.07;7.30;;;;;;;;;;5097294;28;20221;-67
2021/11/22 11:21:32;;;;;;;11.50;7.10;;;;;;;;;;5087280;28;20292;-71
2021/11/22 11:24:02;;;;;;;10.27;6.30;;;;;;;;;;5100710;28;20205;-72
2021/11/22 11:26:30;;;;;;;12.90;7.43;;;;;;;;;;5098351;28;20205;-80
2021/11/22 11:28:58;;;;;;;11.73;7.07;;;;;;;;;;5095355;28;20236;-78
2021/11/22 11:31:27;;;;;;;11.37;7.67;;;;;;;;;;5100740;28;20208;-76
2021/11/22 11:33:56;;;;;;;11.13;7.10;;;;;;;;;;5100853;28;20293;-78
2021/11/22 11:36:32;;;;;;;15.80;8.23;;;;;;;;;;5100375;28;20669;-76
2021/11/22 11:39:11;;;;;;;12.13;7.63;;;;;;;;;;5100335;28;20569;-69
2021/11/22 11:41:44;;;;;;;12.97;7.33;;;;;;;;;;5100437;28;20217;-68
2021/11/22 11:44:17;;;;;;;11.37;7.80;;;;;;;;;;5100302;28;20237;-71
2021/11/22 11:47:14;;;;;;;9.57;6.77;;;;;;;;;;5100588;28;20209;-66
2021/11/22 11:49:42;;;;;;;11.27;7.07;;;;;;;;;;5109027;28;20225;-69
2021/11/22 11:52:24;;;;;;;10.00;6.90;;;;;;;;;;5109767;28;20232;-68
2021/11/22 11:54:53;;;;;;;9.93;6.67;;;;;;;;;;5105290;28;20197;-71
2021/11/22 11:57:22;;;;;;;11.77;6.87;;;;;;;;;;5099867;28;20288;-72
2021/11/22 11:59:51;;;;;;;11.10;6.37;;;;;;;;;;5099643;28;20595;-72
2021/11/22 12:02:24;;;;;;;12.70;6.53;;;;;;;;;;5099886;28;20289;-72
2021/11/22 12:05:00;;;;;;;9.70;7.00;;;;;;;;;;5099860;28;20205;-72
2021/11/22 12:07:30;;;;;;;11.57;7.10;;;;;;;;;;5100208;28;20717;-72
2021/11/22 12:10:10;;;;;;;11.67;6.53;;;;;;;;;;5100012;28;20235;-72
2021/11/22 12:12:38;;;;;;;13.83;7.43;;;;;;;;;;5099803;28;20209;-72
2021/11/22 12:15:14;;;;;;;10.43;6.33;;;;;;;;;;5090534;28;20567;-72
2021/11/22 12:18:02;;;;;;;10.87;6.77;;;;;;;;;;5099727;28;20225;-72
2021/11/22 12:20:42;;;;;;;10.67;6.83;;;;;;;;;;5099633;28;20231;-72
2021/11/22 12:23:11;;;;;;;11.87;7.77;;;;;;;;;;5099924;28;20744;-72
2021/11/22 12:25:42;;;;;;;9.97;7.57;;;;;;;;;;5099273;28;20577;-72
2021/11/22 12:28:15;;;;;;;10.17;7.03;;;;;;;;;;5099736;28;20233;-72
2021/11/22 12:30:43;;;;;;;11.03;6.90;;;;;;;;;;5098784;28;20210;-72
2021/11/22 12:33:31;;;;;;;10.07;6.40;;;;;;;;;;5099643;28;20205;-72
2021/11/22 12:36:00;;;;;;;9.37;6.47;;;;;;;;;;5099685;28;20205;-72
2021/11/22 12:38:29;;;;;;;11.00;7.03;;;;;;;;;;5099323;28;20308;-72
2021/11/22 12:41:23;;;;;;;11.20;6.30;;;;;;;;;;5088024;28;20653;-72
2021/11/22 12:43:52;;;;;;;9.03;5.87;;;;;;;;;;5099271;28;20243;-72
2021/11/22 12:46:21;;;;;;;11.47;6.70;;;;;;;;;;5099249;28;20706;-72
2021/11/22 12:48:51;;;;;;;8.83;5.87;;;;;;;;;;5099383;28;20236;-71
2021/11/22 12:51:20;;;;;;;8.47;6.53;;;;;;;;;;5099363;28;20206;-72
2021/11/22 12:54:03;;;;;;;8.50;6.30;;;;;;;;;;5099079;28;20206;-72
2021/11/22 12:56:33;;;;;;;9.57;6.67;;;;;;;;;;5098721;28;20205;-72
2021/11/22 12:59:05;;;;;;;11.63;6.73;;;;;;;;;;5098982;28;20696;-72
2021/11/22 13:01:33;;;;;;;12.40;6.13;;;;;;;;;;5099240;28;20216;-72
2021/11/22 13:04:04;;;;;;;7.30;5.70;;;;;;;;;;5098906;28;20649;-72
2021/11/22 13:06:38;;;;;;;11.43;6.33;;;;;;;;;;5098651;28;20209;-72
2021/11/22 13:09:06;;;;;;;9.07;6.33;;;;;;;;;;5098981;28;20233;-72
2021/11/22 13:11:49;;;;;;;9.93;6.10;;;;;;;;;;5098777;28;20212;-71
2021/11/22 13:14:23;;;;;;;8.50;5.87;;;;;;;;;;5098975;28;20289;-72
2021/11/22 13:16:52;;;;;;;9.20;5.90;;;;;;;;;;5098988;28;20214;-72
2021/11/22 13:19:21;;;;;;;9.07;6.17;;;;;;;;;;5098666;28;20221;-72
2021/11/22 13:21:51;;;;;;;8.20;5.80;;;;;;;;;;5098981;28;20207;-72
2021/11/22 13:24:20;;;;;;;10.03;6.53;;;;;;;;;;5098633;28;20281;-72
2021/11/22 13:26:50;;;;;;;8.87;6.60;;;;;;;;;;5098087;28;20205;-72
2021/11/22 13:29:19;;;;;;;7.30;5.50;;;;;;;;;;5098523;28;20229;-72
2021/11/22 13:31:48;;;;;;;7.63;5.27;;;;;;;;;;5098936;28;20212;-72
2021/11/22 13:34:19;;;;;;;8.23;5.97;;;;;;;;;;5098546;28;20264;-72
2021/11/22 13:36:55;;;;;;;6.90;5.07;;;;;;;;;;5098202;28;20554;-72
2021/11/22 13:39:24;;;;;;;8.23;5.83;;;;;;;;;;5098232;28;20226;-72
2021/11/22 13:41:55;;;;;;;7.93;5.77;;;;;;;;;;5097680;28;20665;-72
2021/11/22 13:44:24;;;;;;;7.90;5.63;;;;;;;;;;5098335;28;20730;-71
2021/11/22 13:46:55;;;;;;;7.03;5.70;;;;;;;;;;5098140;28;20205;-72
2021/11/22 13:49:23;;;;;;;9.03;5.60;;;;;;;;;;5097844;28;20233;-72
2021/11/22 13:51:56;;;;;;;7.70;5.77;;;;;;;;;;5098276;28;20215;-72
2021/11/22 13:54:25;;;;;;;8.10;5.70;;;;;;;;;;5098060;28;20205;-72
2021/11/22 13:56:58;;;;;;;8.40;5.67;;;;;;;;;;5097792;28;20212;-72
2021/11/22 13:59:27;;;;;;;6.90;5.53;;;;;;;;;;5097768;28;20566;-72
2021/11/22 14:01:56;;;;;;;10.40;5.80;;;;;;;;;;5098243;28;20202;-72
2021/11/22 14:04:25;;;;;;;8.77;5.53;;;;;;;;;;5098164;28;20201;-72
2021/11/22 14:06:53;;;;;;;8.20;5.70;;;;;;;;;;5084907;28;20216;-72
2021/11/22 14:09:22;;;;;;;10.27;5.87;;;;;;;;;;5097773;28;20316;-72
2021/11/22 14:11:52;;;;;;;7.83;5.37;;;;;;;;;;5097380;28;20231;-72
2021/11/22 14:14:22;;;;;;;8.80;5.57;;;;;;;;;;5097974;28;20202;-71
2021/11/22 14:16:51;;;;;;;8.87;5.83;;;;;;;;;;5097768;28;20687;-72
2021/11/22 14:19:19;;;;;;;8.07;5.13;;;;;;;;;;5097726;28;20312;-72
2021/11/22 14:21:48;;;;;;;10.37;6.00;;;;;;;;;;5097894;28;20209;-72
2021/11/22 14:24:17;;;;;;;9.17;5.80;;;;;;;;;;5097699;28;20273;-71
2021/11/22 14:26:46;;;;;;;7.53;5.63;;;;;;;;;;5097414;28;20661;-72
2021/11/22 14:29:16;;;;;;;7.30;5.27;;;;;;;;;;5097487;28;20678;-72
2021/11/22 14:31:49;;;;;;;7.03;5.23;;;;;;;;;;5097588;28;20212;-72
2021/11/22 14:34:18;;;;;;;6.37;5.07;;;;;;;;;;5097640;28;20244;-72
2021/11/22 14:36:47;;;;;;;10.50;5.43;;;;;;;;;;5097473;28;20209;-72
2021/11/22 14:39:15;;;;;;;6.87;4.80;;;;;;;;;;5097231;28;20229;-72
2021/11/22 14:41:45;;;;;;;6.60;5.20;;;;;;;;;;5097693;28;20231;-72
2021/11/22 14:44:14;;;;;;;7.80;5.30;;;;;;;;;;5097419;28;20266;-72
2021/11/22 14:46:48;;;;;;;7.67;5.17;;;;;;;;;;5097333;28;20288;-72
2021/11/22 14:49:36;;;;;;;6.40;4.90;;;;;;;;;;5097842;28;20304;-72
2021/11/22 14:52:05;;;;;;;5.93;4.70;;;;;;;;;;5097417;28;20661;-72